CDT,Max TemperatureF,Mean TemperatureF,Min TemperatureF,Max Dew PointF,MeanDew PointF,Min DewpointF,Max Humidity, Mean Humidity, Min Humidity, Max Sea Level PressureIn, Mean Sea Level PressureIn, Min Sea Level PressureIn, Max VisibilityMiles, Mean VisibilityMiles, Min VisibilityMiles, Max Wind SpeedMPH, Mean Wind SpeedMPH, Max Gust SpeedMPH,PrecipitationIn, CloudCover, Events, WindDirDegrees
2013-10-1,84,72,59,58,53,47,88,61,28,29.99,29.89,29.82,10,10,7,13,7,20,0.00,0,,228
2013-10-2,84,68,51,61,47,32,80,49,19,30.08,29.99,29.90,10,10,7,16,7,21,0.00,1,,109
2013-10-3,82,73,64,68,62,59,89,71,47,29.90,29.84,29.79,10,9,2,15,6,23,0.01,2,Rain,171
2013-10-4,71,68,64,65,62,59,87,83,76,29.94,29.88,29.83,10,9,3,21,6,25,0.82,3,Rain,161
2013-10-5,,,,,,,,,,,,,,,,,,,,,,
2013-10-6,,,,,,,,,,,,,,,,,,,,,,
2013-10-7,77,64,51,50,43,32,85,47,21,30.05,30.00,29.96,10,10,7,15,8,23,0.00,0,,296
2013-10-8,81,65,50,47,42,34,82,50,19,30.10,30.06,30.02,10,10,10,17,7,25,0.00,0,,181
2013-10-9,79,66,54,48,44,38,75,51,23,30.16,30.11,30.07,10,10,10,12,8,17,0.00,0,,164
2013-10-10,79,62,45,51,46,40,85,59,29,30.12,30.05,29.96,10,10,7,13,5,18,0.00,0,,151
2013-10-11,79,68,56,58,52,48,82,57,34,29.96,29.88,29.80,10,10,10,23,11,31,0.00,1,,155
2013-10-12,71,60,48,58,38,25,69,44,19,30.23,30.03,29.81,10,10,10,16,9,26,0.00,1,,275
2013-10-13,65,50,36,37,31,22,85,53,19,30.45,30.36,30.23,10,8,1,8,1,,0.00,0,,335
2013-10-14,64,50,37,39,35,32,85,55,34,30.39,30.22,29.96,10,8,1,22,6,25,0.00,1,Rain,131
2013-10-15,59,54,49,56,45,36,91,73,46,29.94,29.84,29.80,10,9,5,20,13,26,0.13,7,Rain,222
2013-10-16,49,48,46,46,44,42,92,84,75,29.98,29.93,29.86,10,9,2,17,10,23,0.00,8,Rain,287
2013-10-17,60,50,41,43,36,29,87,65,31,29.95,29.87,29.82,10,10,10,10,4,18,0.00,1,,260
2013-10-18,54,47,40,41,33,27,86,63,39,30.01,29.96,29.88,10,10,10,15,10,25,0.00,4,,292
2013-10-19,54,45,36,40,34,30,88,71,44,29.93,29.84,29.77,10,10,10,21,7,29,0.00,1,Rain,261
2013-10-20,59,46,34,44,36,30,91,71,53,29.88,29.78,29.70,10,10,10,16,5,24,0.00,1,Rain,210
2013-10-21,48,38,29,35,26,20,88,63,39,30.03,29.98,29.89,10,10,7,18,10,28,0.00,2,,302
2013-10-22,36,31,26,34,30,24,92,87,79,30.04,29.97,29.94,10,8,1,8,3,,0.07,5,Rain-Snow,3
2013-10-23,42,35,29,32,27,21,88,72,48,30.10,30.05,30.01,10,10,7,13,5,18,0.00,4,Rain,298
2013-10-24,42,34,27,28,23,20,88,62,41,30.35,30.24,30.10,10,10,10,16,6,23,0.00,3,,323
2013-10-25,54,38,23,31,26,21,92,61,29,30.39,30.24,30.00,10,10,7,20,5,29,0.00,1,,222
2013-10-26,52,43,34,32,27,24,73,55,34,30.13,30.02,29.90,10,10,1,18,12,29,0.00,0,,295
2013-10-27,59,42,25,31,27,23,90,61,30,30.10,29.99,29.88,10,10,7,15,4,21,0.00,0,,190
2013-10-28,54,44,34,37,32,28,76,67,50,30.33,30.21,30.00,10,10,10,21,10,26,0.00,1,,72
2013-10-29,57,46,36,42,36,31,82,65,47,30.33,30.18,30.06,10,10,10,15,9,20,0.00,2,,117
2013-10-30,59,54,52,57,51,43,94,89,71,30.05,29.91,29.66,10,6,0,16,8,21,0.40,7,Fog-Rain,138
2013-10-31,60,50,40,59,45,36,94,89,82,29.65,29.52,29.43,10,7,2,17,10,22,0.01,7,Rain,284